createdAt,value
2022-11-28T17:09:14.788Z,81.19
2022-11-28T17:12:25.549Z,79.24
2022-11-28T17:15:29.137Z,78.33
2022-11-28T17:18:32.720Z,78.37
2022-11-28T17:21:41.764Z,77.19
2022-11-28T17:24:47.824Z,78.85
2022-11-28T17:27:52.959Z,78.00
2022-11-28T17:30:56.604Z,77.41
2022-11-28T17:34:00.174Z,77.53
2022-11-28T17:37:05.197Z,76.94
2022-11-28T17:40:28.438Z,77.84
2022-11-28T17:43:37.455Z,77.23
2022-11-28T17:46:42.593Z,76.20
2022-11-28T17:49:46.644Z,77.65
2022-11-28T17:52:50.365Z,78.09
2022-11-28T17:55:59.006Z,78.26
2022-11-28T17:59:03.235Z,77.07
2022-11-28T18:02:06.880Z,77.35
2022-11-28T18:05:10.749Z,77.58
2022-11-28T18:08:21.722Z,77.53
2022-11-28T18:11:28.288Z,77.48
2022-11-28T18:14:38.080Z,77.35
2022-11-28T18:17:43.417Z,77.66
2022-11-28T18:20:47.037Z,77.21
2022-11-28T18:23:51.511Z,77.16
2022-11-28T18:26:56.546Z,76.15
2022-11-28T18:30:00.262Z,75.39
2022-11-28T18:33:03.827Z,77.15
2022-11-28T18:36:11.884Z,77.30
2022-11-28T18:39:17.082Z,76.19
2022-11-28T18:42:22.900Z,76.29
2022-11-28T18:45:26.864Z,77.27
2022-11-28T18:48:31.109Z,77.20
2022-11-28T18:51:36.743Z,77.37
2022-11-28T18:54:40.386Z,77.09
2022-11-28T18:57:45.702Z,76.45
2022-11-28T19:00:49.405Z,75.82
2022-11-28T19:03:56.172Z,76.08
2022-11-28T19:07:01.626Z,77.03
2022-11-28T19:10:08.045Z,76.94
2022-11-28T19:13:13.578Z,76.96
2022-11-28T19:16:19.303Z,77.39
2022-11-28T19:19:22.974Z,77.32
2022-11-28T19:22:26.695Z,77.22
2022-11-28T19:25:31.711Z,77.28
2022-11-28T19:28:37.441Z,77.40
2022-11-28T19:31:42.368Z,77.64
2022-11-28T19:34:46.060Z,78.07
2022-11-28T19:37:50.395Z,78.47
2022-11-28T19:40:55.007Z,77.73
2022-11-28T19:44:00.422Z,77.31
2022-11-28T19:47:06.806Z,77.86
2022-11-28T19:50:11.050Z,77.15
2022-11-28T19:53:15.468Z,77.44
2022-11-28T19:56:22.559Z,77.98
2022-11-28T19:59:28.878Z,77.25
2022-11-28T20:02:33.182Z,77.29
2022-11-28T20:05:39.590Z,77.42
2022-11-28T20:08:44.222Z,77.09
2022-11-28T20:11:48.719Z,77.79
2022-11-28T20:14:53.803Z,77.72
2022-11-28T20:17:57.674Z,77.59
2022-11-28T20:21:07.376Z,77.52
2022-11-28T20:24:11.858Z,78.15
2022-11-28T20:27:15.635Z,77.80
2022-11-28T20:30:20.910Z,76.81
2022-11-28T20:33:26.029Z,76.73
2022-11-28T20:36:32.205Z,76.38
2022-11-28T20:39:35.935Z,77.64
2022-11-28T20:42:40.141Z,77.51
2022-11-28T20:45:45.449Z,76.84
2022-11-28T20:48:51.059Z,77.40
2022-11-28T20:51:54.711Z,77.07
2022-11-28T20:54:58.398Z,77.14
2022-11-28T20:58:01.995Z,77.24
2022-11-28T21:01:07.522Z,77.27
2022-11-28T21:04:14.734Z,77.68
2022-11-28T21:07:18.598Z,78.54
2022-11-28T21:10:22.390Z,77.91
2022-11-28T21:13:26.217Z,78.29
2022-11-28T21:16:33.333Z,77.85
2022-11-28T21:19:37.144Z,77.54
2022-11-28T21:22:40.916Z,77.01
2022-11-28T21:25:45.257Z,76.47
2022-11-28T21:28:52.123Z,76.83
2022-11-28T21:31:58.489Z,77.52
2022-11-28T21:35:04.406Z,76.93
